createdAt,value
2019-04-07T00:00:12.915Z,16.00
2019-04-07T00:02:44.059Z,16.02
2019-04-07T00:05:17.226Z,15.55
2019-04-07T00:08:06.954Z,15.83
2019-04-07T00:10:37.611Z,15.30
2019-04-07T00:13:08.346Z,16.27
2019-04-07T00:15:39.054Z,14.50
2019-04-07T00:18:10.309Z,14.93
2019-04-07T00:20:42.035Z,15.05
2019-04-07T00:23:13.138Z,14.98
2019-04-07T00:25:44.317Z,14.05
2019-04-07T00:28:14.952Z,16.02
2019-04-07T00:30:47.357Z,15.53
2019-04-07T00:33:18.155Z,14.73
2019-04-07T00:35:48.870Z,17.82
2019-04-07T00:38:19.450Z,17.10
2019-04-07T00:40:51.510Z,15.98
2019-04-07T00:43:23.173Z,15.93
2019-04-07T00:45:53.814Z,15.53
2019-04-07T00:48:26.005Z,16.52
2019-04-07T00:50:58.462Z,16.05
2019-04-07T00:53:29.055Z,14.78
2019-04-07T00:56:00.340Z,14.70
2019-04-07T00:58:33.625Z,15.75
2019-04-07T01:01:06.350Z,16.05
2019-04-07T01:03:36.917Z,16.77
2019-04-07T01:06:07.645Z,15.38
2019-04-07T01:08:41.509Z,14.65
2019-04-07T01:11:13.515Z,14.87
2019-04-07T01:13:44.157Z,14.30
2019-04-07T01:16:14.783Z,14.55
2019-04-07T01:18:45.432Z,13.85
2019-04-07T01:21:16.153Z,12.73
2019-04-07T01:23:46.894Z,13.62
2019-04-07T01:26:17.527Z,13.30
2019-04-07T01:28:48.249Z,13.35
2019-04-07T01:31:19.046Z,13.58
2019-04-07T01:33:51.144Z,13.43
2019-04-07T01:36:22.970Z,13.03
2019-04-07T01:38:55.062Z,13.72
2019-04-07T01:41:34.278Z,13.83
2019-04-07T01:44:25.636Z,14.30
2019-04-07T01:47:20.078Z,13.75
2019-04-07T01:50:15.924Z,14.20
2019-04-07T01:53:21.323Z,12.40
2019-04-07T01:56:14.044Z,13.48
2019-04-07T01:58:58.251Z,13.00
2019-04-07T02:01:46.885Z,13.25
2019-04-07T02:04:32.506Z,14.00
2019-04-07T02:07:10.915Z,12.88
2019-04-07T02:09:59.776Z,13.35
2019-04-07T02:12:53.174Z,12.40
2019-04-07T02:15:39.420Z,13.70
2019-04-07T02:18:28.882Z,13.00
2019-04-07T02:21:08.621Z,12.33
2019-04-07T02:23:49.802Z,12.40
2019-04-07T02:26:38.972Z,13.32
2019-04-07T02:29:37.721Z,12.80
2019-04-07T02:32:29.575Z,13.65
2019-04-07T02:35:18.062Z,14.05
2019-04-07T02:37:57.712Z,13.83
2019-04-07T02:40:47.362Z,12.73
2019-04-07T02:43:34.182Z,13.15
2019-04-07T02:46:25.664Z,13.78
2019-04-07T02:49:21.354Z,12.98
2019-04-07T02:51:59.324Z,14.43
2019-04-07T02:54:50.415Z,14.18
2019-04-07T02:57:32.065Z,14.15
2019-04-07T03:00:20.562Z,13.58
2019-04-07T03:02:58.187Z,13.48
2019-04-07T03:05:36.250Z,12.63
2019-04-07T03:08:23.882Z,13.10
2019-04-07T03:11:31.203Z,13.07
2019-04-07T03:14:12.380Z,13.55
2019-04-07T03:16:50.311Z,13.40
2019-04-07T03:19:26.930Z,13.75
2019-04-07T03:22:16.562Z,13.28
2019-04-07T03:25:05.506Z,12.98
2019-04-07T03:28:00.516Z,13.65
2019-04-07T03:30:54.802Z,13.32
2019-04-07T03:33:40.422Z,13.05
2019-04-07T03:36:22.759Z,14.20
2019-04-07T03:39:04.963Z,14.10
2019-04-07T03:42:01.066Z,13.48
2019-04-07T03:44:47.013Z,14.80
2019-04-07T03:47:34.138Z,14.83
2019-04-07T03:50:23.053Z,14.35
2019-04-07T03:53:25.064Z,12.95
2019-04-07T03:56:34.233Z,14.35
2019-04-07T03:59:22.497Z,13.95
2019-04-07T04:02:01.131Z,13.95
2019-04-07T04:04:55.479Z,14.15
2019-04-07T04:07:38.634Z,13.30
2019-04-07T04:10:24.231Z,13.00
2019-04-07T04:13:16.755Z,13.40
2019-04-07T04:15:53.189Z,13.35
2019-04-07T04:18:24.046Z,13.13
2019-04-07T04:20:54.743Z,12.80
2019-04-07T04:23:26.087Z,13.13
2019-04-07T04:25:59.015Z,13.25
2019-04-07T04:28:30.604Z,12.25
2019-04-07T04:31:01.499Z,14.75
2019-04-07T04:33:33.862Z,12.47
2019-04-07T04:36:04.542Z,12.80
2019-04-07T04:38:38.547Z,12.90
2019-04-07T04:41:10.101Z,12.53
2019-04-07T04:43:42.527Z,13.43
2019-04-07T04:46:13.580Z,12.40
2019-04-07T04:48:44.330Z,12.80
2019-04-07T04:51:14.915Z,12.73
2019-04-07T04:53:45.722Z,13.05
2019-04-07T04:56:16.795Z,13.17
2019-04-07T04:58:47.850Z,12.53
2019-04-07T05:01:18.732Z,12.80
2019-04-07T05:03:49.429Z,12.18
2019-04-07T05:06:22.632Z,12.47
2019-04-07T05:08:53.179Z,14.07
2019-04-07T05:11:23.915Z,11.97
2019-04-07T05:13:54.571Z,11.53
2019-04-07T05:16:25.264Z,13.13
2019-04-07T05:18:55.865Z,12.47
2019-04-07T05:21:27.342Z,12.63
2019-04-07T05:23:59.229Z,12.20
2019-04-07T05:26:30.272Z,11.25
2019-04-07T05:29:02.750Z,12.40
2019-04-07T05:31:33.974Z,11.50
2019-04-07T05:34:05.351Z,12.78
2019-04-07T05:36:36.904Z,12.15
2019-04-07T05:39:10.198Z,13.20
2019-04-07T05:41:40.830Z,11.95
2019-04-07T05:44:11.552Z,13.38
2019-04-07T05:46:42.602Z,12.30
2019-04-07T05:49:16.230Z,12.47
2019-04-07T05:51:47.064Z,12.63
2019-04-07T05:54:19.755Z,13.32
2019-04-07T05:56:51.522Z,12.85
2019-04-07T05:59:22.172Z,12.30
2019-04-07T06:01:58.411Z,12.60
2019-04-07T06:04:28.243Z,13.03
2019-04-07T06:06:59.122Z,13.28
2019-04-07T06:09:33.526Z,12.70
2019-04-07T06:12:07.992Z,11.75
2019-04-07T06:14:35.477Z,12.33
2019-04-07T06:17:07.331Z,12.68
2019-04-07T06:19:41.096Z,11.93
2019-04-07T06:22:11.071Z,12.85
2019-04-07T06:24:41.873Z,12.53
2019-04-07T06:27:13.813Z,12.00
2019-04-07T06:29:44.769Z,12.15
2019-04-07T06:32:36.092Z,11.00
2019-04-07T06:35:08.507Z,12.23
2019-04-07T06:37:39.826Z,12.03
2019-04-07T06:40:11.159Z,11.15
2019-04-07T06:42:44.886Z,11.78
2019-04-07T06:45:21.803Z,11.70
2019-04-07T06:47:53.889Z,11.97
2019-04-07T06:51:01.877Z,10.65
2019-04-07T06:53:50.536Z,11.78
2019-04-07T06:56:33.468Z,10.30
2019-04-07T06:59:19.869Z,11.73
2019-04-07T07:02:15.412Z,12.00
2019-04-07T07:05:07.122Z,10.72
2019-04-07T07:07:59.761Z,11.10
2019-04-07T07:11:07.689Z,10.82
2019-04-07T07:14:04.167Z,10.82
2019-04-07T07:16:53.463Z,11.35
2019-04-07T07:19:55.663Z,10.20
2019-04-07T07:22:31.731Z,10.00
2019-04-07T07:25:03.080Z,9.75
2019-04-07T07:27:33.869Z,9.75
2019-04-07T07:30:05.528Z,10.23
2019-04-07T07:32:37.307Z,10.03
2019-04-07T07:35:15.004Z,9.48
2019-04-07T07:37:43.387Z,8.80
2019-04-07T07:40:16.058Z,8.63
2019-04-07T07:42:49.012Z,8.83
2019-04-07T07:45:19.055Z,8.18
2019-04-07T07:47:53.764Z,7.10
2019-04-07T07:50:21.985Z,6.97
2019-04-07T07:52:54.601Z,7.83
2019-04-07T07:55:25.296Z,7.75
2019-04-07T07:57:59.149Z,7.17
2019-04-07T08:00:30.947Z,6.87
2019-04-07T08:03:02.610Z,6.78
2019-04-07T08:05:33.532Z,6.53
2019-04-07T08:08:05.876Z,6.35
2019-04-07T08:10:36.490Z,7.20
2019-04-07T08:13:08.683Z,7.17
2019-04-07T08:15:41.603Z,7.05
2019-04-07T08:18:13.324Z,7.05
2019-04-07T08:20:45.185Z,7.65
2019-04-07T08:23:16.411Z,6.67
2019-04-07T08:25:47.111Z,6.37
2019-04-07T08:28:19.767Z,6.62
2019-04-07T08:30:50.301Z,6.08
2019-04-07T08:33:23.675Z,6.72
2019-04-07T08:35:56.080Z,5.53
2019-04-07T08:38:28.216Z,6.45
2019-04-07T08:41:00.224Z,6.00
2019-04-07T08:43:32.990Z,5.67
2019-04-07T08:46:04.683Z,5.53
2019-04-07T08:48:36.097Z,6.22
2019-04-07T08:51:06.972Z,6.80
2019-04-07T08:53:37.787Z,7.17
2019-04-07T08:56:08.927Z,6.20
2019-04-07T08:58:40.155Z,6.95
2019-04-07T09:01:10.772Z,6.67
2019-04-07T09:03:45.420Z,7.00
2019-04-07T09:06:15.179Z,7.22
2019-04-07T09:08:46.768Z,7.20
2019-04-07T09:11:21.614Z,7.10
2019-04-07T09:13:54.782Z,7.70
2019-04-07T09:16:50.486Z,6.92
2019-04-07T09:19:37.281Z,7.58
2019-04-07T09:22:25.289Z,9.25
2019-04-07T09:25:09.274Z,7.95
2019-04-07T09:27:50.231Z,7.37
2019-04-07T09:30:39.169Z,9.53
2019-04-07T09:33:37.649Z,9.30
2019-04-07T09:36:27.651Z,10.58
2019-04-07T09:39:24.019Z,10.08
2019-04-07T09:42:18.612Z,9.85
2019-04-07T09:44:58.505Z,10.45
2019-04-07T09:47:51.200Z,10.48
2019-04-07T09:50:39.698Z,11.15
2019-04-07T09:53:30.507Z,10.50
2019-04-07T09:56:19.967Z,10.08
2019-04-07T09:59:07.884Z,10.53
2019-04-07T10:01:57.150Z,11.48
2019-04-07T10:04:38.547Z,12.35
2019-04-07T10:07:28.211Z,11.15
2019-04-07T10:10:25.232Z,9.73
2019-04-07T10:13:09.465Z,10.08
2019-04-07T10:16:11.953Z,10.75
2019-04-07T10:19:00.725Z,10.82
2019-04-07T10:21:47.558Z,11.03
2019-04-07T10:24:37.404Z,10.35
2019-04-07T10:27:33.964Z,10.88
2019-04-07T10:30:15.701Z,9.63
2019-04-07T10:33:21.475Z,10.45
2019-04-07T10:36:11.251Z,9.60
2019-04-07T10:39:00.759Z,8.53
2019-04-07T10:41:50.716Z,9.00
2019-04-07T10:44:31.469Z,11.08
2019-04-07T10:47:21.185Z,7.67
2019-04-07T10:50:05.018Z,9.28
2019-04-07T10:52:54.455Z,9.20
2019-04-07T10:55:44.210Z,9.15
2019-04-07T10:58:36.877Z,8.55
2019-04-07T11:01:55.176Z,9.88
2019-04-07T11:04:45.057Z,9.63
2019-04-07T11:07:21.637Z,10.38
2019-04-07T11:10:10.250Z,11.22
2019-04-07T11:13:00.700Z,11.18
2019-04-07T11:15:46.585Z,9.38
2019-04-07T11:18:34.942Z,11.60
2019-04-07T11:21:19.066Z,9.10
2019-04-07T11:24:12.294Z,10.10
2019-04-07T11:27:03.676Z,9.75
2019-04-07T11:29:54.971Z,9.43
2019-04-07T11:32:37.345Z,11.50
2019-04-07T11:35:19.447Z,10.20
2019-04-07T11:38:05.808Z,10.08
2019-04-07T11:40:50.725Z,9.95
2019-04-07T11:43:40.916Z,9.75
2019-04-07T11:46:28.161Z,10.00
2019-04-07T11:49:14.426Z,11.05
2019-04-07T11:51:53.589Z,10.25
2019-04-07T11:54:46.554Z,11.10
2019-04-07T11:57:27.092Z,11.80
2019-04-07T12:00:18.424Z,10.88
2019-04-07T12:03:11.717Z,10.75
2019-04-07T12:06:02.671Z,10.45
2019-04-07T12:08:48.924Z,9.68
2019-04-07T12:11:36.998Z,10.05
2019-04-07T12:14:29.355Z,8.75
2019-04-07T12:17:18.922Z,8.75
2019-04-07T12:19:56.901Z,9.95
2019-04-07T12:22:48.038Z,9.65
2019-04-07T12:25:42.886Z,8.83
2019-04-07T12:28:24.662Z,9.70
2019-04-07T12:31:14.033Z,9.45
2019-04-07T12:34:02.899Z,9.48
2019-04-07T12:36:56.137Z,9.13
2019-04-07T12:39:47.245Z,8.30
2019-04-07T12:42:22.477Z,9.23
2019-04-07T12:45:20.222Z,8.85
2019-04-07T12:48:21.863Z,8.35
2019-04-07T12:51:12.358Z,9.68
2019-04-07T12:54:02.255Z,7.70
2019-04-07T12:57:06.181Z,10.00
2019-04-07T13:00:00.101Z,8.68
2019-04-07T13:03:02.832Z,8.73
2019-04-07T13:05:51.233Z,10.40
2019-04-07T13:08:46.869Z,9.33
2019-04-07T13:11:45.715Z,9.40
2019-04-07T13:14:39.972Z,8.50
2019-04-07T13:17:21.641Z,9.25
2019-04-07T13:20:29.488Z,9.83
2019-04-07T13:23:07.951Z,8.35
2019-04-07T13:25:55.671Z,8.73
2019-04-07T13:28:37.144Z,9.15
2019-04-07T13:31:30.340Z,10.20
2019-04-07T13:34:23.440Z,11.35
2019-04-07T13:37:15.641Z,9.28
2019-04-07T13:40:11.460Z,9.20
2019-04-07T13:42:50.896Z,10.18
2019-04-07T13:45:46.195Z,8.70
2019-04-07T13:48:37.979Z,10.15
2019-04-07T13:51:42.696Z,8.85
2019-04-07T13:54:49.379Z,10.35
2019-04-07T13:57:48.417Z,12.25
2019-04-07T14:00:46.330Z,9.20
2019-04-07T14:03:44.172Z,10.20
2019-04-07T14:06:32.865Z,9.18
2019-04-07T14:09:29.082Z,12.07
2019-04-07T14:12:12.847Z,10.90
2019-04-07T14:15:14.323Z,11.15
2019-04-07T14:18:10.163Z,10.78
2019-04-07T14:20:54.045Z,10.05
2019-04-07T14:23:41.012Z,9.65
2019-04-07T14:26:29.359Z,10.20
2019-04-07T14:29:21.998Z,10.03
2019-04-07T14:32:21.981Z,8.98
2019-04-07T14:35:10.549Z,11.28
2019-04-07T14:37:59.380Z,12.13
2019-04-07T14:40:48.962Z,12.05
2019-04-07T14:43:32.201Z,12.35
2019-04-07T14:46:12.095Z,10.03
2019-04-07T14:49:13.255Z,10.25
2019-04-07T14:51:49.917Z,10.50
2019-04-07T14:54:57.076Z,9.88
2019-04-07T14:57:55.433Z,10.25
2019-04-07T15:00:44.000Z,11.03
2019-04-07T15:03:14.706Z,11.95
2019-04-07T15:05:47.080Z,12.85
2019-04-07T15:08:43.165Z,10.50
2019-04-07T15:11:35.846Z,11.10
2019-04-07T15:14:06.961Z,11.63
2019-04-07T15:16:38.272Z,11.43
2019-04-07T15:19:09.628Z,11.65
2019-04-07T15:21:41.199Z,11.48
2019-04-07T15:24:12.127Z,10.23
2019-04-07T15:26:46.979Z,11.68
2019-04-07T15:29:15.795Z,12.30
2019-04-07T15:31:50.050Z,9.83
2019-04-07T15:34:19.867Z,10.48
2019-04-07T15:36:52.456Z,10.10
2019-04-07T15:39:28.015Z,10.93
2019-04-07T15:41:58.044Z,12.13
2019-04-07T15:44:29.181Z,11.75
2019-04-07T15:47:00.277Z,9.23
2019-04-07T15:49:31.156Z,10.70
2019-04-07T15:52:06.727Z,11.35
2019-04-07T15:54:37.067Z,10.60
2019-04-07T15:57:07.848Z,13.55
2019-04-07T15:59:39.420Z,10.30
2019-04-07T16:02:12.163Z,10.72
2019-04-07T16:04:43.990Z,12.70
2019-04-07T16:07:18.379Z,11.33
2019-04-07T16:09:52.767Z,11.10
2019-04-07T16:12:20.908Z,12.53
2019-04-07T16:14:51.466Z,12.00
2019-04-07T16:17:23.045Z,12.60
2019-04-07T16:19:54.478Z,13.68
2019-04-07T16:22:26.585Z,14.63
2019-04-07T16:24:57.369Z,13.38
2019-04-07T16:27:28.260Z,14.15
2019-04-07T16:29:59.242Z,13.98
2019-04-07T16:32:30.989Z,13.50
2019-04-07T16:35:03.863Z,14.73
2019-04-07T16:37:34.835Z,12.78
2019-04-07T16:40:10.375Z,14.30
2019-04-07T16:42:40.199Z,13.20
2019-04-07T16:45:14.379Z,14.00
2019-04-07T16:47:43.598Z,14.33
2019-04-07T16:50:18.062Z,13.72
2019-04-07T16:52:47.144Z,13.95
2019-04-07T16:55:41.684Z,13.62
2019-04-07T16:58:12.374Z,15.55
2019-04-07T17:00:42.956Z,12.75
2019-04-07T17:03:13.550Z,14.78
2019-04-07T17:05:45.082Z,14.13
2019-04-07T17:08:19.405Z,12.60
2019-04-07T17:10:48.592Z,14.10
2019-04-07T17:13:27.987Z,13.85
2019-04-07T17:15:54.003Z,13.43
2019-04-07T17:18:55.358Z,16.40
2019-04-07T17:21:26.563Z,13.53
2019-04-07T17:23:59.186Z,14.18
2019-04-07T17:26:31.184Z,14.55
2019-04-07T17:29:03.215Z,15.43
2019-04-07T17:31:34.759Z,13.98
2019-04-07T17:34:09.785Z,13.95
2019-04-07T17:36:39.216Z,15.55
2019-04-07T17:39:29.193Z,14.95
2019-04-07T17:42:00.384Z,14.70
2019-04-07T17:44:50.003Z,14.25
2019-04-07T17:47:31.480Z,13.27
2019-04-07T17:50:33.746Z,13.32
2019-04-07T17:53:29.720Z,14.68
2019-04-07T17:56:22.299Z,14.50
2019-04-07T17:59:15.278Z,14.83
2019-04-07T18:02:02.375Z,14.43
2019-04-07T18:04:53.697Z,14.90
2019-04-07T18:07:44.024Z,13.80
2019-04-07T18:10:34.893Z,17.73
2019-04-07T18:13:25.090Z,14.47
2019-04-07T18:16:18.740Z,14.40
2019-04-07T18:19:21.384Z,15.60
2019-04-07T18:22:18.230Z,15.75
2019-04-07T18:25:08.528Z,15.35
2019-04-07T18:28:10.371Z,15.83
2019-04-07T18:31:05.375Z,16.07
2019-04-07T18:33:45.505Z,16.45
2019-04-07T18:36:41.291Z,15.35
2019-04-07T18:39:28.375Z,15.78
2019-04-07T18:42:18.208Z,15.53
2019-04-07T18:45:21.562Z,16.15
2019-04-07T18:48:28.853Z,15.50
2019-04-07T18:51:23.226Z,15.20
2019-04-07T18:54:07.344Z,16.55
2019-04-07T18:57:05.602Z,15.85
2019-04-07T19:00:10.694Z,17.17
2019-04-07T19:02:58.747Z,16.52
2019-04-07T19:05:40.624Z,17.37
2019-04-07T19:08:25.044Z,16.15
2019-04-07T19:11:17.331Z,17.40
2019-04-07T19:14:20.452Z,15.63
2019-04-07T19:16:41.799Z,16.35
2019-04-07T19:19:35.510Z,16.37
2019-04-07T19:22:19.694Z,16.52
2019-04-07T19:25:12.749Z,17.73
2019-04-07T19:27:55.393Z,16.37
2019-04-07T19:30:37.026Z,16.35
2019-04-07T19:33:29.591Z,18.42
2019-04-07T19:36:19.891Z,16.48
2019-04-07T19:39:00.689Z,16.15
2019-04-07T19:41:50.964Z,14.87
2019-04-07T19:44:41.608Z,16.80
2019-04-07T19:47:34.368Z,15.10
2019-04-07T19:50:24.251Z,16.65
2019-04-07T19:53:31.616Z,14.78
2019-04-07T19:56:18.938Z,15.23
2019-04-07T19:59:09.065Z,16.00
2019-04-07T20:02:07.467Z,15.65
2019-04-07T20:05:17.370Z,15.58
2019-04-07T20:08:12.038Z,15.18
2019-04-07T20:10:59.331Z,15.63
2019-04-07T20:13:58.636Z,15.55
2019-04-07T20:16:47.549Z,14.98
2019-04-07T20:19:38.269Z,15.75
2019-04-07T20:22:24.757Z,15.18
2019-04-07T20:25:16.005Z,15.70
2019-04-07T20:27:57.453Z,14.70
2019-04-07T20:30:39.024Z,14.63
2019-04-07T20:33:33.444Z,15.20
2019-04-07T20:36:23.628Z,14.35
2019-04-07T20:39:01.875Z,14.55
2019-04-07T20:41:53.383Z,15.15
2019-04-07T20:44:42.521Z,14.38
2019-04-07T20:47:36.084Z,15.98
2019-04-07T20:50:45.789Z,14.55
2019-04-07T20:53:29.867Z,14.43
2019-04-07T20:56:18.618Z,14.15
2019-04-07T20:59:17.171Z,14.15
2019-04-07T21:02:10.970Z,13.50
2019-04-07T21:04:52.095Z,14.03
2019-04-07T21:07:51.224Z,14.73
2019-04-07T21:10:58.108Z,14.43
2019-04-07T21:13:59.322Z,14.15
2019-04-07T21:17:02.652Z,14.05
2019-04-07T21:20:13.144Z,14.78
2019-04-07T21:25:55.486Z,14.55
2019-04-07T21:28:38.937Z,15.78
2019-04-07T21:31:28.644Z,14.63
2019-04-07T21:34:08.835Z,14.47
2019-04-07T21:36:52.540Z,13.65
2019-04-07T21:39:41.667Z,14.55
2019-04-07T21:42:40.298Z,14.03
2019-04-07T21:45:36.839Z,14.50
2019-04-07T21:48:17.953Z,15.85
2019-04-07T21:50:54.893Z,14.70
2019-04-07T21:53:47.769Z,14.40
2019-04-07T21:56:50.062Z,13.80
2019-04-07T21:59:42.526Z,13.83
2019-04-07T22:02:22.422Z,14.45
2019-04-07T22:05:04.512Z,14.43
2019-04-07T22:08:13.137Z,14.90
2019-04-07T22:10:39.768Z,14.65
2019-04-07T22:13:10.414Z,14.60
2019-04-07T22:15:47.930Z,14.53
2019-04-07T22:18:13.349Z,14.70
2019-04-07T22:20:44.245Z,14.18
2019-04-07T22:23:14.914Z,14.93
2019-04-07T22:25:53.996Z,15.20
2019-04-07T22:28:27.823Z,14.85
2019-04-07T22:30:57.411Z,15.58
2019-04-07T22:33:31.489Z,14.53
2019-04-07T22:36:02.078Z,14.55
2019-04-07T22:38:33.559Z,14.87
2019-04-07T22:41:06.779Z,14.35
2019-04-07T22:43:37.002Z,13.95
2019-04-07T22:46:16.880Z,16.17
2019-04-07T22:48:41.822Z,15.08
2019-04-07T22:51:26.505Z,16.05
2019-04-07T22:53:57.782Z,14.10
2019-04-07T22:56:31.119Z,14.40
2019-04-07T22:59:02.016Z,14.47
2019-04-07T23:01:33.309Z,14.07
2019-04-07T23:04:03.989Z,13.78
2019-04-07T23:06:34.567Z,14.85
2019-04-07T23:09:07.859Z,15.58
2019-04-07T23:11:39.878Z,14.45
2019-04-07T23:14:11.511Z,14.53
2019-04-07T23:16:42.327Z,14.83
2019-04-07T23:19:12.909Z,15.08
2019-04-07T23:21:43.516Z,14.63
2019-04-07T23:24:14.824Z,14.75
2019-04-07T23:26:45.592Z,14.38
2019-04-07T23:29:16.233Z,15.55
2019-04-07T23:31:47.247Z,16.52
2019-04-07T23:34:17.880Z,16.75
2019-04-07T23:36:48.434Z,16.77
2019-04-07T23:39:20.162Z,15.43
2019-04-07T23:41:51.229Z,14.85
2019-04-07T23:44:21.802Z,15.63
2019-04-07T23:46:53.042Z,20.60
2019-04-07T23:49:23.589Z,15.25
2019-04-07T23:51:54.109Z,16.27
2019-04-07T23:54:24.867Z,15.95
2019-04-07T23:56:56.109Z,16.87
2019-04-07T23:59:27.087Z,15.72
